createdAt,value
2022-10-31T00:00:59.534Z,999.96
2022-10-31T00:01:59.527Z,1000.00
2022-10-31T00:02:59.855Z,999.96
2022-10-31T00:03:59.434Z,999.96
2022-10-31T00:04:59.430Z,999.95
2022-10-31T00:05:59.452Z,999.99
2022-10-31T00:06:59.413Z,1000.03
2022-10-31T00:07:59.407Z,1000.00
2022-10-31T00:08:59.393Z,999.99
2022-10-31T00:09:59.411Z,999.98
2022-10-31T00:10:59.418Z,1000.03
2022-10-31T00:11:59.375Z,999.96
2022-10-31T00:12:59.767Z,1000.04
2022-10-31T00:13:59.358Z,999.93
2022-10-31T00:14:59.356Z,1000.01
2022-10-31T00:15:59.348Z,999.98
2022-10-31T00:16:59.365Z,1000.06
2022-10-31T00:17:59.603Z,999.97
2022-10-31T00:18:59.328Z,1000.05
2022-10-31T00:19:59.322Z,1000.05
2022-10-31T00:20:59.309Z,1000.11
2022-10-31T00:21:59.330Z,1000.13
2022-10-31T00:22:59.295Z,1000.12
2022-10-31T00:23:59.291Z,1000.12
2022-10-31T00:24:59.315Z,1000.11
2022-10-31T00:25:59.298Z,1000.07
2022-10-31T00:26:59.269Z,1000.09
2022-10-31T00:27:59.465Z,1000.10
2022-10-31T00:28:59.252Z,1000.07
2022-10-31T00:29:59.243Z,1000.14
2022-10-31T00:30:59.261Z,1000.11
2022-10-31T00:31:59.224Z,1000.07
2022-10-31T00:32:59.673Z,1000.06
2022-10-31T00:33:59.222Z,1000.03
2022-10-31T00:34:59.203Z,1000.13
2022-10-31T00:35:59.219Z,1000.08
2022-10-31T00:36:59.185Z,1000.14
2022-10-31T00:37:59.177Z,1000.17
2022-10-31T00:38:59.173Z,1000.19
2022-10-31T00:39:59.166Z,1000.10
2022-10-31T00:40:59.187Z,1000.12
2022-10-31T00:41:59.151Z,1000.18
2022-10-31T00:42:59.502Z,1000.19
2022-10-31T00:43:59.137Z,1000.07
2022-10-31T00:44:59.149Z,1000.10
2022-10-31T00:45:59.147Z,1000.14
2022-10-31T00:46:59.112Z,1000.13
2022-10-31T00:47:59.482Z,1000.16
2022-10-31T00:48:59.102Z,1000.22
2022-10-31T00:49:59.089Z,1000.21
2022-10-31T00:50:59.102Z,1000.19
2022-10-31T00:51:59.079Z,1000.24
2022-10-31T00:52:59.063Z,1000.25
2022-10-31T00:53:59.054Z,1000.21
2022-10-31T00:54:59.056Z,1000.27
2022-10-31T00:55:59.069Z,1000.26
2022-10-31T00:56:59.035Z,1000.23
2022-10-31T00:57:59.338Z,1000.27
2022-10-31T00:58:59.020Z,1000.30
2022-10-31T00:59:59.012Z,1000.24
2022-10-31T01:00:59.118Z,1000.28
2022-10-31T01:01:59.137Z,1000.28
2022-10-31T01:02:59.171Z,1000.33
2022-10-31T01:03:58.996Z,1000.32
2022-10-31T01:04:59.013Z,1000.28
2022-10-31T01:05:59.112Z,1000.33
2022-10-31T01:06:58.960Z,1000.27
2022-10-31T01:07:58.956Z,1000.30
2022-10-31T01:08:58.949Z,1000.30
2022-10-31T01:09:58.941Z,1000.24
2022-10-31T01:10:58.970Z,1000.28
2022-10-31T01:11:58.941Z,1000.26
2022-10-31T01:12:59.329Z,1000.29
2022-10-31T01:13:58.910Z,1000.29
2022-10-31T01:14:58.903Z,1000.32
2022-10-31T01:15:58.896Z,1000.34
2022-10-31T01:16:58.914Z,1000.30
2022-10-31T01:17:59.194Z,1000.35
2022-10-31T01:18:58.877Z,1000.34
2022-10-31T01:19:58.871Z,1000.31
2022-10-31T01:20:58.864Z,1000.28
2022-10-31T01:21:58.881Z,1000.31
2022-10-31T01:22:58.846Z,1000.22
2022-10-31T01:23:58.837Z,1000.20
2022-10-31T01:24:58.832Z,1000.22
2022-10-31T01:25:58.822Z,1000.25
2022-10-31T01:26:58.843Z,1000.24
2022-10-31T01:27:59.162Z,1000.25
2022-10-31T01:28:58.801Z,1000.28
2022-10-31T01:29:58.795Z,1000.23
2022-10-31T01:30:58.816Z,1000.26
2022-10-31T01:31:58.777Z,1000.28
2022-10-31T01:32:59.373Z,1000.30
2022-10-31T01:33:58.767Z,1000.31
2022-10-31T01:34:58.760Z,1000.27
2022-10-31T01:35:58.805Z,1000.31
2022-10-31T01:36:58.742Z,1000.26
2022-10-31T01:37:58.736Z,1000.30
2022-10-31T01:38:58.731Z,1000.31
2022-10-31T01:39:58.719Z,1000.28
2022-10-31T01:40:58.742Z,1000.28
2022-10-31T01:41:58.699Z,1000.26
2022-10-31T01:42:58.983Z,1000.26
2022-10-31T01:43:58.687Z,1000.25
2022-10-31T01:45:33.054Z,1000.29
2022-10-31T01:45:58.682Z,1000.28
2022-10-31T01:46:58.695Z,1000.27
2022-10-31T01:47:59.118Z,1000.27
2022-10-31T01:48:58.659Z,1000.28
2022-10-31T01:49:58.655Z,1000.28
2022-10-31T01:50:58.637Z,1000.28
2022-10-31T01:51:58.676Z,1000.25
2022-10-31T01:52:58.630Z,1000.30
2022-10-31T01:53:58.612Z,1000.33
2022-10-31T01:54:58.612Z,1000.33
2022-10-31T01:55:58.601Z,1000.37
2022-10-31T01:56:58.662Z,1000.37
2022-10-31T01:57:59.025Z,1000.34
2022-10-31T01:58:58.582Z,1000.40
2022-10-31T01:59:58.574Z,1000.31
2022-10-31T02:01:00.548Z,1000.30
2022-10-31T02:01:58.759Z,1000.34
2022-10-31T02:02:58.903Z,1000.31
2022-10-31T02:03:58.557Z,1000.40
2022-10-31T02:04:58.541Z,1000.39
2022-10-31T02:05:58.525Z,1000.40
2022-10-31T02:06:58.574Z,1000.40
2022-10-31T02:07:58.515Z,1000.34
2022-10-31T02:08:58.506Z,1000.38
2022-10-31T02:09:58.489Z,1000.29
2022-10-31T02:10:58.495Z,1000.33
2022-10-31T02:11:58.502Z,1000.45
2022-10-31T02:12:58.760Z,1000.43
2022-10-31T02:13:58.600Z,1000.46
2022-10-31T02:14:58.448Z,1000.43
2022-10-31T02:15:58.449Z,1000.43
2022-10-31T02:16:58.462Z,1000.42
2022-10-31T02:17:58.824Z,1000.35
2022-10-31T02:18:58.428Z,1000.41
2022-10-31T02:19:58.415Z,1000.42
2022-10-31T02:20:58.440Z,1000.35
2022-10-31T02:21:58.436Z,1000.38
2022-10-31T02:22:58.399Z,1000.45
2022-10-31T02:23:58.379Z,1000.43
2022-10-31T02:24:58.381Z,1000.38
2022-10-31T02:25:58.394Z,1000.40
2022-10-31T02:26:58.365Z,1000.43
2022-10-31T02:27:58.635Z,1000.38
2022-10-31T02:28:58.348Z,1000.41
2022-10-31T02:29:58.341Z,1000.38
2022-10-31T02:30:58.357Z,1000.43
2022-10-31T02:31:58.330Z,1000.47
2022-10-31T02:32:58.564Z,1000.52
2022-10-31T02:33:58.305Z,1000.49
2022-10-31T02:34:58.302Z,1000.42
2022-10-31T02:35:58.294Z,1000.50
2022-10-31T02:36:58.318Z,1000.46
2022-10-31T02:37:58.295Z,1000.43
2022-10-31T02:38:58.265Z,1000.48
2022-10-31T02:39:58.287Z,1000.53
2022-10-31T02:40:58.293Z,1000.48
2022-10-31T02:41:58.252Z,1000.47
2022-10-31T02:42:58.758Z,1000.46
2022-10-31T02:43:58.236Z,1000.43
2022-10-31T02:44:58.246Z,1000.45
2022-10-31T02:45:58.251Z,1000.41
2022-10-31T02:46:58.212Z,1000.48
2022-10-31T02:47:58.422Z,1000.42
2022-10-31T02:48:58.195Z,1000.49
2022-10-31T02:49:58.194Z,1000.54
2022-10-31T02:50:58.199Z,1000.51
2022-10-31T02:51:58.199Z,1000.53
2022-10-31T02:52:58.159Z,1000.53
2022-10-31T02:53:58.171Z,1000.49
2022-10-31T02:54:58.146Z,1000.54
2022-10-31T02:55:58.143Z,1000.53
2022-10-31T02:56:58.166Z,1000.50
2022-10-31T02:57:58.641Z,1000.50
2022-10-31T02:58:58.132Z,1000.49
2022-10-31T02:59:58.115Z,1000.41
2022-10-31T03:00:58.147Z,1000.43
2022-10-31T03:01:58.227Z,1000.51
2022-10-31T03:02:58.594Z,1000.48
2022-10-31T03:03:58.077Z,1000.48
2022-10-31T03:04:58.068Z,1000.47
2022-10-31T03:05:58.107Z,1000.47
2022-10-31T03:06:58.071Z,1000.57
2022-10-31T03:07:58.056Z,1000.49
2022-10-31T03:08:58.041Z,1000.51
2022-10-31T03:09:58.040Z,1000.48
2022-10-31T03:10:58.028Z,1000.47
2022-10-31T03:11:58.059Z,1000.44
2022-10-31T03:12:58.017Z,1000.41
2022-10-31T03:13:58.006Z,1000.38
2022-10-31T03:14:58.006Z,1000.41
2022-10-31T03:15:58.016Z,1000.33
2022-10-31T03:16:58.008Z,1000.44
2022-10-31T03:17:58.179Z,1000.40
2022-10-31T03:18:57.964Z,1000.36
2022-10-31T03:19:57.962Z,1000.41
2022-10-31T03:20:57.974Z,1000.43
2022-10-31T03:21:57.988Z,1000.49
2022-10-31T03:22:57.953Z,1000.39
2022-10-31T03:23:57.935Z,1000.47
2022-10-31T03:24:57.926Z,1000.47
2022-10-31T03:25:57.920Z,1000.48
2022-10-31T03:26:57.947Z,1000.44
2022-10-31T03:27:58.459Z,1000.48
2022-10-31T03:28:57.905Z,1000.49
2022-10-31T03:29:57.907Z,1000.48
2022-10-31T03:30:57.883Z,1000.45
2022-10-31T03:31:57.913Z,1000.39
2022-10-31T03:32:58.217Z,1000.39
2022-10-31T03:33:57.869Z,1000.45
2022-10-31T03:34:57.861Z,1000.40
2022-10-31T03:35:57.850Z,1000.41
2022-10-31T03:36:57.860Z,1000.41
2022-10-31T03:37:57.836Z,1000.41
2022-10-31T03:38:57.847Z,1000.44
2022-10-31T03:39:57.830Z,1000.38
2022-10-31T03:40:57.812Z,1000.37
2022-10-31T03:41:57.829Z,1000.39
2022-10-31T03:42:58.180Z,1000.26
2022-10-31T03:43:57.796Z,1000.33
2022-10-31T03:44:57.776Z,1000.36
2022-10-31T03:45:57.785Z,1000.34
2022-10-31T03:46:57.786Z,1000.37
2022-10-31T03:47:58.023Z,1000.41
2022-10-31T03:48:57.744Z,1000.42
2022-10-31T03:49:57.740Z,1000.45
2022-10-31T03:50:57.747Z,1000.45
2022-10-31T03:51:57.760Z,1000.47
2022-10-31T03:52:57.714Z,1000.45
2022-10-31T03:53:57.716Z,1000.42
2022-10-31T03:54:57.705Z,1000.48
2022-10-31T03:55:57.701Z,1000.47
2022-10-31T03:56:57.713Z,1000.49
2022-10-31T03:57:58.105Z,1000.47
2022-10-31T03:58:57.674Z,1000.45
2022-10-31T03:59:57.684Z,1000.46
2022-10-31T04:00:57.713Z,1000.45
2022-10-31T04:01:57.843Z,1000.48
2022-10-31T04:02:57.946Z,1000.44
2022-10-31T04:03:57.642Z,1000.38
2022-10-31T04:04:57.627Z,1000.45
2022-10-31T04:05:57.623Z,1000.46
2022-10-31T04:06:57.637Z,1000.42
2022-10-31T04:07:57.597Z,1000.41
2022-10-31T04:08:58.632Z,1000.42
2022-10-31T04:09:57.591Z,1000.51
2022-10-31T04:10:57.587Z,1000.38
2022-10-31T04:11:57.626Z,1000.34
2022-10-31T04:12:57.930Z,1000.41
2022-10-31T04:13:57.554Z,1000.39
2022-10-31T04:14:57.550Z,1000.36
2022-10-31T04:15:57.549Z,1000.40
2022-10-31T04:16:57.594Z,1000.37
2022-10-31T04:17:57.851Z,1000.40
2022-10-31T04:18:57.530Z,1000.37
2022-10-31T04:19:57.651Z,1000.36
2022-10-31T04:20:57.499Z,1000.37
2022-10-31T04:21:57.543Z,1000.37
2022-10-31T04:22:57.495Z,1000.28
2022-10-31T04:23:57.493Z,1000.35
2022-10-31T04:24:57.466Z,1000.40
2022-10-31T04:25:57.463Z,1000.36
2022-10-31T04:26:57.481Z,1000.31
2022-10-31T04:27:57.860Z,1000.33
2022-10-31T04:28:57.441Z,1000.37
2022-10-31T04:29:57.430Z,1000.32
2022-10-31T04:30:57.423Z,1000.35
2022-10-31T04:31:57.435Z,1000.40
2022-10-31T04:32:57.701Z,1000.39
2022-10-31T04:33:57.402Z,1000.36
2022-10-31T04:34:57.392Z,1000.35
2022-10-31T04:35:57.383Z,1000.32
2022-10-31T04:36:57.407Z,1000.30
2022-10-31T04:37:57.366Z,1000.36
2022-10-31T04:38:57.374Z,1000.32
2022-10-31T04:39:57.372Z,1000.35
2022-10-31T04:40:57.354Z,1000.34
2022-10-31T04:41:57.365Z,1000.39
2022-10-31T04:42:57.522Z,1000.35
2022-10-31T04:43:57.322Z,1000.37
2022-10-31T04:44:57.350Z,1000.38
2022-10-31T04:45:57.322Z,1000.34
2022-10-31T04:46:57.331Z,1000.36
2022-10-31T04:47:57.532Z,1000.41
2022-10-31T04:48:57.284Z,1000.34
2022-10-31T04:49:57.275Z,1000.37
2022-10-31T04:50:57.273Z,1000.42
2022-10-31T04:51:57.312Z,1000.39
2022-10-31T04:52:57.285Z,1000.40
2022-10-31T04:53:57.251Z,1000.43
2022-10-31T04:54:57.246Z,1000.42
2022-10-31T04:55:57.228Z,1000.43
2022-10-31T04:56:57.244Z,1000.43
2022-10-31T04:57:57.408Z,1000.39
2022-10-31T04:58:57.204Z,1000.42
2022-10-31T04:59:57.197Z,1000.36
2022-10-31T05:00:57.266Z,1000.41
2022-10-31T05:01:57.363Z,1000.34
2022-10-31T05:02:57.391Z,1000.41
2022-10-31T05:03:57.166Z,1000.33
2022-10-31T05:04:57.152Z,1000.40
2022-10-31T05:05:57.171Z,1000.33
2022-10-31T05:06:57.165Z,1000.38
2022-10-31T05:07:57.141Z,1000.37
2022-10-31T05:08:57.135Z,1000.31
2022-10-31T05:09:57.122Z,1000.36
2022-10-31T05:11:01.554Z,1000.38
2022-10-31T05:11:58.150Z,1000.40
2022-10-31T05:12:57.364Z,1000.27
2022-10-31T05:13:57.094Z,1000.34
2022-10-31T05:14:57.083Z,1000.28
2022-10-31T05:15:57.075Z,1000.27
2022-10-31T05:16:57.117Z,1000.26
2022-10-31T05:17:57.372Z,1000.36
2022-10-31T05:18:57.053Z,1000.34
2022-10-31T05:19:57.081Z,1000.31
2022-10-31T05:20:57.042Z,1000.27
2022-10-31T05:21:57.061Z,1000.31
2022-10-31T05:22:57.010Z,1000.37
2022-10-31T05:23:57.018Z,1000.38
2022-10-31T05:24:57.011Z,1000.36
2022-10-31T05:25:56.994Z,1000.38
2022-10-31T05:26:57.032Z,1000.30
2022-10-31T05:27:57.234Z,1000.31
2022-10-31T05:28:56.975Z,1000.30
2022-10-31T05:29:57.041Z,1000.33
2022-10-31T05:30:56.950Z,1000.29
2022-10-31T05:31:56.976Z,1000.30
2022-10-31T05:32:57.205Z,1000.30
2022-10-31T05:33:56.948Z,1000.29
2022-10-31T05:34:56.966Z,1000.30
2022-10-31T05:35:56.926Z,1000.34
2022-10-31T05:36:56.950Z,1000.40
2022-10-31T05:37:56.899Z,1000.33
2022-10-31T05:38:56.907Z,1000.38
2022-10-31T05:39:56.928Z,1000.31
2022-10-31T05:40:56.873Z,1000.40
2022-10-31T05:41:56.904Z,1000.40
2022-10-31T05:42:57.157Z,1000.36
2022-10-31T05:43:56.919Z,1000.41
2022-10-31T05:44:56.862Z,1000.35
2022-10-31T05:45:56.859Z,1000.41
2022-10-31T05:46:56.892Z,1000.37
2022-10-31T05:47:57.098Z,1000.39
2022-10-31T05:49:00.218Z,1000.31
2022-10-31T05:49:58.815Z,1000.31
2022-10-31T05:50:56.857Z,1000.39
2022-10-31T05:51:56.830Z,1000.39
2022-10-31T05:52:56.804Z,1000.37
2022-10-31T05:53:56.790Z,1000.40
2022-10-31T05:54:56.775Z,1000.43
2022-10-31T05:55:56.775Z,1000.43
2022-10-31T05:56:56.789Z,1000.44
2022-10-31T05:57:56.898Z,1000.41
2022-10-31T05:58:56.750Z,1000.40
2022-10-31T05:59:56.748Z,1000.41
2022-10-31T06:00:56.730Z,1000.37
2022-10-31T06:01:56.855Z,1000.44
2022-10-31T06:02:56.804Z,1000.41
2022-10-31T06:03:56.737Z,1000.43
2022-10-31T06:04:56.781Z,1000.48
2022-10-31T06:05:56.701Z,1000.41
2022-10-31T06:06:56.715Z,1000.44
2022-10-31T06:07:56.923Z,1000.50
2022-10-31T06:08:57.685Z,1000.51
2022-10-31T06:09:56.670Z,1000.53
2022-10-31T06:10:56.686Z,1000.44
2022-10-31T06:11:56.709Z,1000.59
2022-10-31T06:12:56.673Z,1000.48
2022-10-31T06:13:56.641Z,1000.48
2022-10-31T06:14:56.620Z,1000.59
2022-10-31T06:15:56.621Z,1000.60
2022-10-31T06:16:56.692Z,1000.62
2022-10-31T06:17:56.724Z,1000.60
2022-10-31T06:18:56.593Z,1000.60
2022-10-31T06:19:56.587Z,1000.66
2022-10-31T06:20:56.612Z,1000.66
2022-10-31T06:21:56.597Z,1000.65
2022-10-31T06:22:56.791Z,1000.63
2022-10-31T06:23:56.564Z,1000.72
2022-10-31T06:24:56.576Z,1000.68
2022-10-31T06:25:56.546Z,1000.71
2022-10-31T06:26:56.629Z,1000.71
2022-10-31T06:27:56.845Z,1000.78
2022-10-31T06:29:00.032Z,1000.75
2022-10-31T06:29:57.520Z,1000.77
2022-10-31T06:30:56.525Z,1000.79
2022-10-31T06:31:56.495Z,1000.79
2022-10-31T06:32:56.536Z,1000.84
2022-10-31T06:33:56.489Z,1000.83
2022-10-31T06:34:56.481Z,1000.84
2022-10-31T06:35:56.471Z,1000.81
2022-10-31T06:36:56.466Z,1000.88
2022-10-31T06:37:56.498Z,1000.93
2022-10-31T06:38:56.481Z,1000.93
2022-10-31T06:39:56.439Z,1000.97
2022-10-31T06:40:56.440Z,1000.99
2022-10-31T06:41:56.425Z,1000.99
2022-10-31T06:42:56.439Z,1001.00
2022-10-31T06:43:56.419Z,1001.02
2022-10-31T06:44:56.431Z,1000.89
2022-10-31T06:45:56.425Z,1000.95
2022-10-31T06:46:56.386Z,1000.97
2022-10-31T06:48:15.893Z,1000.98
2022-10-31T06:48:58.364Z,1000.97
2022-10-31T06:49:56.394Z,1000.88
2022-10-31T06:50:59.614Z,1001.00
2022-10-31T06:51:57.336Z,1000.92
2022-10-31T06:52:56.445Z,1000.95
2022-10-31T06:53:56.338Z,1000.96
2022-10-31T06:54:56.339Z,1000.98
2022-10-31T06:55:56.313Z,1000.93
2022-10-31T06:56:56.309Z,1000.98
2022-10-31T06:57:58.873Z,1000.95
2022-10-31T06:58:57.301Z,1000.93
2022-10-31T06:59:56.387Z,1000.98
2022-10-31T07:00:56.324Z,1000.98
2022-10-31T07:01:56.523Z,1000.97
2022-10-31T07:02:56.512Z,1000.98
2022-10-31T07:03:56.280Z,1000.89
2022-10-31T07:04:56.264Z,1000.85
2022-10-31T07:05:56.256Z,1000.92
2022-10-31T07:06:56.246Z,1000.89
2022-10-31T07:07:56.249Z,1000.91
2022-10-31T07:08:56.212Z,1000.93
2022-10-31T07:09:56.210Z,1000.90
2022-10-31T07:10:56.249Z,1000.93
2022-10-31T07:11:56.196Z,1000.95
2022-10-31T07:12:56.339Z,1000.91
2022-10-31T07:13:56.176Z,1000.87
2022-10-31T07:14:56.163Z,1000.88
2022-10-31T07:15:56.160Z,1000.91
2022-10-31T07:16:56.155Z,1000.91
2022-10-31T07:17:56.185Z,1000.97
2022-10-31T07:18:56.174Z,1000.94
2022-10-31T07:19:56.136Z,1000.88
2022-10-31T07:20:56.117Z,1000.80
2022-10-31T07:21:56.121Z,1000.89
2022-10-31T07:22:56.158Z,1000.85
2022-10-31T07:23:56.089Z,1000.90
2022-10-31T07:24:56.121Z,1000.86
2022-10-31T07:25:56.107Z,1000.80
2022-10-31T07:26:56.124Z,1000.87
2022-10-31T07:27:56.124Z,1000.85
2022-10-31T07:28:56.207Z,1000.85
2022-10-31T07:29:56.071Z,1000.81
2022-10-31T07:30:56.070Z,1000.89
2022-10-31T07:31:56.039Z,1000.81
2022-10-31T07:32:56.074Z,1000.80
2022-10-31T07:33:56.020Z,1000.81
2022-10-31T07:34:56.019Z,1000.81
2022-10-31T07:35:56.005Z,1000.81
2022-10-31T07:36:56.000Z,1000.75
2022-10-31T07:37:56.038Z,1000.80
2022-10-31T07:38:56.013Z,1000.86
2022-10-31T07:39:55.972Z,1000.72
2022-10-31T07:40:55.984Z,1000.79
2022-10-31T07:41:55.967Z,1000.76
2022-10-31T07:42:56.009Z,1000.75
2022-10-31T07:43:55.959Z,1000.73
2022-10-31T07:44:57.703Z,1000.71
2022-10-31T07:46:30.152Z,1000.69
2022-10-31T07:46:55.924Z,1000.75
2022-10-31T07:47:55.911Z,1000.77
2022-10-31T07:48:55.939Z,1000.72
2022-10-31T07:49:55.907Z,1000.69
2022-10-31T07:50:55.888Z,1000.68
2022-10-31T07:51:55.889Z,1000.64
2022-10-31T07:52:55.890Z,1000.71
2022-10-31T07:53:55.910Z,1000.71
2022-10-31T07:54:55.859Z,1000.68
2022-10-31T07:55:55.843Z,1000.68
2022-10-31T07:56:56.883Z,1000.71
2022-10-31T07:57:55.858Z,1000.69
2022-10-31T07:58:55.859Z,1000.66
2022-10-31T07:59:55.819Z,1000.70
2022-10-31T08:00:55.910Z,1000.76
2022-10-31T08:01:55.829Z,1000.74
2022-10-31T08:02:55.801Z,1000.75
2022-10-31T08:03:55.818Z,1000.74
2022-10-31T08:04:58.582Z,1000.77
2022-10-31T08:05:56.774Z,1000.78
2022-10-31T08:06:55.832Z,1000.75
2022-10-31T08:07:55.759Z,1000.72
2022-10-31T08:08:55.775Z,1000.70
2022-10-31T08:09:55.746Z,1000.68
2022-10-31T08:10:55.767Z,1000.63
2022-10-31T08:11:55.756Z,1000.63
2022-10-31T08:12:55.777Z,1000.61
2022-10-31T08:13:55.717Z,1000.66
2022-10-31T08:14:55.701Z,1000.64
2022-10-31T08:15:55.693Z,1000.61
2022-10-31T08:16:55.689Z,1000.59
2022-10-31T08:17:55.731Z,1000.59
2022-10-31T08:18:55.678Z,1000.58
2022-10-31T08:19:55.670Z,1000.60
2022-10-31T08:20:55.663Z,1000.58
2022-10-31T08:21:55.657Z,1000.66
2022-10-31T08:22:55.676Z,1000.68
2022-10-31T08:23:55.639Z,1000.68
2022-10-31T08:24:55.638Z,1000.66
2022-10-31T08:25:55.630Z,1000.66
2022-10-31T08:26:55.614Z,1000.63
2022-10-31T08:27:55.639Z,1000.65
2022-10-31T08:28:55.715Z,1000.63
2022-10-31T08:29:55.591Z,1000.64
2022-10-31T08:30:55.592Z,1000.56
2022-10-31T08:31:55.587Z,1000.57
2022-10-31T08:32:55.569Z,1000.55
2022-10-31T08:33:55.602Z,1000.57
2022-10-31T08:34:55.556Z,1000.60
2022-10-31T08:35:55.563Z,1000.66
2022-10-31T08:36:55.552Z,1000.61
2022-10-31T08:37:55.539Z,1000.60
2022-10-31T08:39:00.656Z,1000.58
2022-10-31T08:39:57.535Z,1000.64
2022-10-31T08:40:55.548Z,1000.53
2022-10-31T08:41:55.512Z,1000.57
2022-10-31T08:42:55.506Z,1000.49
2022-10-31T08:43:55.523Z,1000.52
2022-10-31T08:44:55.531Z,1000.51
2022-10-31T08:45:55.485Z,1000.54
2022-10-31T08:46:55.488Z,1000.52
2022-10-31T08:47:55.465Z,1000.52
2022-10-31T08:48:55.481Z,1000.58
2022-10-31T08:49:55.471Z,1000.56
2022-10-31T08:50:55.445Z,1000.49
2022-10-31T08:51:55.447Z,1000.51
2022-10-31T08:53:06.671Z,1000.47
2022-10-31T08:53:57.422Z,1000.47
2022-10-31T08:54:55.413Z,1000.52
2022-10-31T08:55:55.416Z,1000.46
2022-10-31T08:56:55.416Z,1000.49
2022-10-31T08:57:55.423Z,1000.50
2022-10-31T08:58:55.387Z,1000.41
2022-10-31T08:59:55.373Z,1000.48
2022-10-31T09:00:55.433Z,1000.43
2022-10-31T09:01:55.456Z,1000.50
2022-10-31T09:02:55.348Z,1000.47
2022-10-31T09:03:55.374Z,1000.49
2022-10-31T09:04:55.349Z,1000.47
2022-10-31T09:05:55.383Z,1000.46
2022-10-31T09:07:20.097Z,1000.41
2022-10-31T09:07:59.980Z,1000.36
2022-10-31T09:08:56.330Z,1000.43
2022-10-31T09:09:55.294Z,1000.29
2022-10-31T09:10:55.285Z,1000.30
2022-10-31T09:11:55.287Z,1000.31
2022-10-31T09:12:55.265Z,1000.28
2022-10-31T09:13:55.332Z,1000.24
2022-10-31T09:14:55.262Z,1000.28
2022-10-31T09:15:55.268Z,1000.23
2022-10-31T09:16:55.251Z,1000.17
2022-10-31T09:17:55.232Z,1000.22
2022-10-31T09:18:55.318Z,1000.20
2022-10-31T09:19:55.218Z,1000.12
2022-10-31T09:20:55.209Z,1000.16
2022-10-31T09:21:55.212Z,1000.11
2022-10-31T09:22:55.236Z,1000.10
2022-10-31T09:23:55.209Z,1000.14
2022-10-31T09:24:55.231Z,1000.17
2022-10-31T09:25:55.204Z,1000.20
2022-10-31T09:26:55.164Z,1000.17
2022-10-31T09:27:55.186Z,1000.15
2022-10-31T09:28:55.169Z,1000.10
2022-10-31T09:29:55.145Z,1000.11
2022-10-31T09:30:55.142Z,1000.18
2022-10-31T09:31:55.121Z,1000.11
2022-10-31T09:32:55.115Z,1000.13
2022-10-31T09:33:55.145Z,1000.09
2022-10-31T09:34:55.101Z,1000.16
2022-10-31T09:35:55.118Z,1000.09
2022-10-31T09:36:55.102Z,1000.09
2022-10-31T09:37:55.077Z,1000.11
2022-10-31T09:38:55.108Z,1000.07
2022-10-31T09:39:55.073Z,1000.11
2022-10-31T09:40:55.060Z,1000.16
2022-10-31T09:41:57.222Z,1000.11
2022-10-31T09:42:55.043Z,1000.07
2022-10-31T09:43:55.156Z,1000.12
2022-10-31T09:44:55.029Z,1000.14
2022-10-31T09:45:55.023Z,999.96
2022-10-31T09:46:55.014Z,1000.03
2022-10-31T09:47:55.006Z,1000.07
2022-10-31T09:48:55.023Z,1000.11
2022-10-31T09:49:55.045Z,1000.09
2022-10-31T09:50:54.993Z,1000.06
2022-10-31T09:51:54.976Z,1000.01
2022-10-31T09:52:54.967Z,1000.02
2022-10-31T09:53:54.983Z,1000.04
2022-10-31T09:54:54.960Z,1000.07
2022-10-31T09:55:54.972Z,1000.08
2022-10-31T09:56:54.940Z,999.96
2022-10-31T09:57:54.935Z,999.97
2022-10-31T09:58:54.968Z,999.99
2022-10-31T09:59:54.922Z,1000.03
2022-10-31T10:00:54.937Z,999.97
2022-10-31T10:01:54.974Z,1000.00
2022-10-31T10:02:54.897Z,999.98
2022-10-31T10:03:54.916Z,999.99
2022-10-31T10:04:54.882Z,999.98
2022-10-31T10:05:54.889Z,999.95
2022-10-31T10:06:54.877Z,999.90
2022-10-31T10:07:54.856Z,999.90
2022-10-31T10:08:54.876Z,999.94
2022-10-31T10:09:55.851Z,999.93
2022-10-31T10:10:54.833Z,999.88
2022-10-31T10:11:54.832Z,999.94
2022-10-31T10:12:54.815Z,999.88
2022-10-31T10:13:55.860Z,999.87
2022-10-31T10:14:54.800Z,999.91
2022-10-31T10:15:54.794Z,999.94
2022-10-31T10:16:54.785Z,999.90
2022-10-31T10:17:54.782Z,999.82
2022-10-31T10:18:54.800Z,999.82
2022-10-31T10:19:54.764Z,999.85
2022-10-31T10:20:54.761Z,999.89
2022-10-31T10:21:54.752Z,999.84
2022-10-31T10:22:54.745Z,999.83
2022-10-31T10:23:54.738Z,999.81
2022-10-31T10:24:54.773Z,999.80
2022-10-31T10:25:54.770Z,999.82
2022-10-31T10:26:54.713Z,999.82
2022-10-31T10:27:54.707Z,999.81
2022-10-31T10:28:54.697Z,999.77
2022-10-31T10:29:54.737Z,999.87
2022-10-31T10:30:54.681Z,999.76
2022-10-31T10:31:54.668Z,999.81
2022-10-31T10:32:54.675Z,999.79
2022-10-31T10:33:54.656Z,999.78
2022-10-31T10:34:54.669Z,999.73
2022-10-31T10:35:54.639Z,999.74
2022-10-31T10:36:54.633Z,999.77
2022-10-31T10:37:54.629Z,999.77
2022-10-31T10:38:54.624Z,999.76
2022-10-31T10:39:54.633Z,999.77
2022-10-31T10:40:54.600Z,999.72
2022-10-31T10:41:54.605Z,999.75
2022-10-31T10:42:54.596Z,999.69
2022-10-31T10:43:54.589Z,999.76
2022-10-31T10:44:54.608Z,999.71
2022-10-31T10:45:54.572Z,999.59
2022-10-31T10:46:54.557Z,999.61
2022-10-31T10:47:54.544Z,999.52
2022-10-31T10:48:54.535Z,999.61
2022-10-31T10:49:55.562Z,999.56
2022-10-31T10:50:54.530Z,999.68
2022-10-31T10:52:07.415Z,999.56
2022-10-31T10:52:56.520Z,999.50
2022-10-31T10:53:54.504Z,999.59
2022-10-31T10:54:54.536Z,999.55
2022-10-31T10:55:54.516Z,999.64
2022-10-31T10:56:54.487Z,999.53
2022-10-31T10:57:54.473Z,999.44
2022-10-31T10:58:54.472Z,999.53
2022-10-31T10:59:54.483Z,999.47
2022-10-31T11:00:54.555Z,999.49
2022-10-31T11:01:54.447Z,999.47
2022-10-31T11:02:54.437Z,999.44
2022-10-31T11:03:54.436Z,999.47
2022-10-31T11:04:54.504Z,999.43
2022-10-31T11:05:54.417Z,999.42
2022-10-31T11:06:54.409Z,999.43
2022-10-31T11:07:54.411Z,999.43
2022-10-31T11:08:54.417Z,999.37
2022-10-31T11:09:54.478Z,999.40
2022-10-31T11:10:54.374Z,999.40
2022-10-31T11:11:54.391Z,999.36
2022-10-31T11:12:54.363Z,999.31
2022-10-31T11:13:54.371Z,999.32
2022-10-31T11:14:54.381Z,999.26
2022-10-31T11:15:54.363Z,999.26
2022-10-31T11:16:54.326Z,999.22
2022-10-31T11:17:54.320Z,999.18
2022-10-31T11:18:54.313Z,999.22
2022-10-31T11:19:54.333Z,999.20
2022-10-31T11:20:54.309Z,999.16
2022-10-31T11:21:54.529Z,999.23
2022-10-31T11:22:54.296Z,999.19
2022-10-31T11:23:54.279Z,999.23
2022-10-31T11:24:54.314Z,999.18
2022-10-31T11:25:54.265Z,999.22
2022-10-31T11:26:54.254Z,999.22
2022-10-31T11:27:54.247Z,999.13
2022-10-31T11:28:54.233Z,999.06
2022-10-31T11:29:58.299Z,999.10
2022-10-31T11:30:56.232Z,999.15
2022-10-31T11:31:54.223Z,998.97
2022-10-31T11:32:54.233Z,999.00
2022-10-31T11:33:54.200Z,999.01
2022-10-31T11:34:54.217Z,999.00
2022-10-31T11:35:57.013Z,998.94
2022-10-31T11:36:54.177Z,999.00
2022-10-31T11:37:54.183Z,998.94
2022-10-31T11:38:54.158Z,998.94
2022-10-31T11:39:54.542Z,998.89
2022-10-31T11:40:54.148Z,999.04
2022-10-31T11:41:54.139Z,998.87
2022-10-31T11:42:54.144Z,998.88
2022-10-31T11:43:54.122Z,998.89
2022-10-31T11:44:54.484Z,998.92
2022-10-31T11:45:54.106Z,998.95
2022-10-31T11:46:54.089Z,998.94
2022-10-31T11:47:59.160Z,998.87
2022-10-31T11:48:55.129Z,998.92
2022-10-31T11:49:54.710Z,998.84
2022-10-31T11:50:54.072Z,998.85
2022-10-31T11:51:54.079Z,998.81
2022-10-31T11:53:56.949Z,998.78
2022-10-31T11:54:56.063Z,998.76
2022-10-31T11:55:54.031Z,998.75
2022-10-31T11:56:54.027Z,998.73
2022-10-31T11:57:54.024Z,998.79
2022-10-31T11:58:54.007Z,998.74
2022-10-31T11:59:54.000Z,998.72
2022-10-31T12:00:54.469Z,998.77
2022-10-31T12:01:54.097Z,998.73
2022-10-31T12:02:54.068Z,998.74
2022-10-31T12:03:53.969Z,998.64
2022-10-31T12:04:53.969Z,998.68
2022-10-31T12:05:53.975Z,998.70
2022-10-31T12:06:53.940Z,998.70
2022-10-31T12:07:54.005Z,998.71
2022-10-31T12:08:53.931Z,998.68
2022-10-31T12:09:53.931Z,998.64
2022-10-31T12:10:53.955Z,998.60
2022-10-31T12:11:53.905Z,998.55